createdAt,value
2023-01-13T00:01:10.920Z,95233.66
2023-01-13T00:03:43.724Z,95222.84
2023-01-13T00:06:17.644Z,95221.03
2023-01-13T00:08:51.583Z,95208.38
2023-01-13T00:11:23.502Z,95205.75
2023-01-13T00:13:53.617Z,95211.78
2023-01-13T00:16:24.720Z,95206.34
2023-01-13T00:18:57.723Z,95205.19
2023-01-13T00:21:29.171Z,95197.16
2023-01-13T00:23:59.774Z,95194.75
2023-01-13T00:26:33.998Z,95197.53
2023-01-13T00:29:06.328Z,95188.31
2023-01-13T00:31:36.586Z,95190.31
2023-01-13T00:34:09.250Z,95179.66
2023-01-13T00:36:39.568Z,95185.69
2023-01-13T00:39:10.075Z,95184.50
2023-01-13T00:41:52.487Z,95183.09
2023-01-13T00:44:23.354Z,95187.50
2023-01-13T00:46:53.986Z,95181.09
2023-01-13T00:49:26.949Z,95176.25
2023-01-13T00:51:56.969Z,95175.66
2023-01-13T00:54:27.395Z,95176.84
2023-01-13T00:56:57.489Z,95169.00
2023-01-13T00:59:27.871Z,95178.88
2023-01-13T01:01:58.200Z,95171.63
2023-01-13T01:04:30.984Z,95162.59
2023-01-13T01:07:01.902Z,95168.22
2023-01-13T01:09:33.790Z,95155.97
2023-01-13T01:12:04.663Z,95160.19
2023-01-13T01:14:34.715Z,95174.66
2023-01-13T01:17:05.021Z,95154.78
2023-01-13T01:19:39.091Z,95161.81
2023-01-13T01:22:09.234Z,95155.16
2023-01-13T01:24:39.820Z,95151.13
2023-01-13T01:27:09.873Z,95152.53
2023-01-13T01:29:39.955Z,95155.38
2023-01-13T01:32:10.054Z,95152.94
2023-01-13T01:34:42.779Z,95149.53
2023-01-13T01:37:12.830Z,95146.72
2023-01-13T01:39:42.933Z,95142.09
2023-01-13T01:42:30.956Z,95149.72
2023-01-13T01:45:13.625Z,95135.28
2023-01-13T01:47:46.529Z,95144.72
2023-01-13T01:50:21.625Z,95139.88
2023-01-13T01:52:59.391Z,95128.66
2023-01-13T01:55:33.949Z,95122.63
2023-01-13T01:58:10.687Z,95125.25
2023-01-13T02:00:41.389Z,95121.19
2023-01-13T02:03:12.969Z,95114.97
2023-01-13T02:05:45.694Z,95114.97
2023-01-13T02:08:17.822Z,95115.34
2023-01-13T02:10:56.343Z,95112.78
2023-01-13T02:13:24.186Z,95108.94
2023-01-13T02:16:05.832Z,95104.31
2023-01-13T02:18:57.323Z,95103.91
2023-01-13T02:21:57.116Z,95106.88
2023-01-13T02:24:55.531Z,95106.03
2023-01-13T02:27:44.552Z,95108.28
2023-01-13T02:30:49.002Z,95101.78
2023-01-13T02:33:37.573Z,95098.31
2023-01-13T02:36:20.370Z,95091.34
2023-01-13T02:38:57.428Z,95090.28
2023-01-13T02:41:52.125Z,95090.16
2023-01-13T02:44:31.888Z,95090.28
2023-01-13T02:47:11.694Z,95090.25
2023-01-13T02:49:47.987Z,95083.03
2023-01-13T02:52:25.279Z,95083.34
2023-01-13T02:55:02.660Z,95085.28
2023-01-13T02:57:38.033Z,95073.47
2023-01-13T03:00:12.162Z,95075.47
2023-01-13T03:02:44.642Z,95074.00
2023-01-13T03:05:30.930Z,95072.78
2023-01-13T03:08:18.480Z,95060.53
2023-01-13T03:11:04.038Z,95055.06
2023-01-13T03:13:53.854Z,95050.41
2023-01-13T03:16:34.699Z,95047.25
2023-01-13T03:19:17.638Z,95041.50
2023-01-13T03:21:56.937Z,95043.88
2023-01-13T03:24:36.381Z,95041.44
2023-01-13T03:27:15.506Z,95039.00
2023-01-13T03:29:52.344Z,95039.69
2023-01-13T03:32:28.464Z,95038.25
2023-01-13T03:35:08.624Z,95045.97
2023-01-13T03:37:44.336Z,95039.16
2023-01-13T03:40:20.415Z,95050.41
2023-01-13T03:43:22.291Z,95049.50
2023-01-13T03:45:59.248Z,95046.03
2023-01-13T03:48:33.804Z,95048.69
2023-01-13T03:51:10.575Z,95040.34
2023-01-13T03:53:46.414Z,95038.25
2023-01-13T03:56:27.367Z,95032.09
2023-01-13T03:59:00.641Z,95036.16
2023-01-13T04:01:38.365Z,95029.59
2023-01-13T04:04:13.067Z,95036.56
2023-01-13T04:06:57.064Z,95036.16
2023-01-13T04:09:36.775Z,95034.75
2023-01-13T04:12:14.025Z,95028.28
2023-01-13T04:14:45.871Z,95040.03
2023-01-13T04:17:16.698Z,95038.88
2023-01-13T04:19:46.811Z,95038.22
2023-01-13T04:22:19.659Z,95030.19
2023-01-13T04:24:49.769Z,95024.09
2023-01-13T04:27:19.859Z,95026.94
2023-01-13T04:29:50.536Z,95018.69
2023-01-13T04:32:20.389Z,95023.56
2023-01-13T04:34:50.334Z,95017.78
2023-01-13T04:37:22.792Z,95021.47
2023-01-13T04:39:52.595Z,95024.50
2023-01-13T04:42:22.412Z,95023.81
2023-01-13T04:44:52.291Z,95016.00
2023-01-13T04:47:22.204Z,95006.72
2023-01-13T04:49:52.029Z,95006.66
2023-01-13T04:52:24.418Z,95007.88
2023-01-13T04:54:54.357Z,95010.72
2023-01-13T04:57:24.628Z,95012.03
2023-01-13T04:59:54.982Z,95007.03
2023-01-13T05:02:24.989Z,95006.66
2023-01-13T05:04:54.953Z,95001.28
2023-01-13T05:07:27.401Z,95000.94
2023-01-13T05:09:57.241Z,95004.72
2023-01-13T05:12:40.050Z,95000.69
2023-01-13T05:15:23.475Z,95007.75
2023-01-13T05:17:53.993Z,95012.41
2023-01-13T05:20:23.855Z,95000.13
2023-01-13T05:23:09.018Z,95000.78
2023-01-13T05:25:44.547Z,94991.66
2023-01-13T05:28:14.645Z,94997.66
2023-01-13T05:30:49.459Z,95004.97
2023-01-13T05:33:22.375Z,95002.97
2023-01-13T05:35:52.278Z,95003.38
2023-01-13T05:38:24.819Z,94999.75
2023-01-13T05:41:07.151Z,94999.19
2023-01-13T05:43:37.067Z,94994.69
2023-01-13T05:46:09.627Z,94995.53
2023-01-13T05:48:42.099Z,94996.13
2023-01-13T05:51:14.581Z,95002.75
2023-01-13T05:53:47.468Z,94995.47
2023-01-13T05:56:18.129Z,94995.06
2023-01-13T05:58:48.049Z,95008.94
2023-01-13T06:01:17.868Z,95002.53
2023-01-13T06:03:47.745Z,95006.56
2023-01-13T06:06:17.504Z,94991.72
2023-01-13T06:08:49.930Z,95003.63
2023-01-13T06:11:19.751Z,95001.34
2023-01-13T06:13:49.580Z,95009.41
2023-01-13T06:16:19.447Z,94995.69
2023-01-13T06:18:49.352Z,95013.22
2023-01-13T06:21:19.195Z,95013.56
2023-01-13T06:23:51.864Z,95009.19
2023-01-13T06:26:25.877Z,95021.47
2023-01-13T06:28:55.726Z,95016.25
2023-01-13T06:31:28.730Z,95023.88
2023-01-13T06:34:04.729Z,95021.47
2023-01-13T06:36:43.235Z,95023.28
2023-01-13T06:39:21.341Z,95018.84
2023-01-13T06:42:08.193Z,95018.28
2023-01-13T06:44:38.127Z,95015.44
2023-01-13T06:47:09.390Z,95004.41
2023-01-13T06:49:40.309Z,95003.38
2023-01-13T06:52:10.154Z,94999.91
2023-01-13T06:54:42.781Z,95002.03
2023-01-13T06:57:12.784Z,95014.06
2023-01-13T06:59:42.731Z,95014.88
2023-01-13T07:02:12.677Z,95008.78
2023-01-13T07:04:42.728Z,95018.50
2023-01-13T07:07:13.384Z,95002.81
2023-01-13T07:09:45.803Z,95012.47
2023-01-13T07:12:15.725Z,95024.88
2023-01-13T07:14:58.147Z,95032.31
2023-01-13T07:17:28.004Z,95028.75
2023-01-13T07:19:58.109Z,95023.28
2023-01-13T07:22:27.989Z,95016.63
2023-01-13T07:25:00.644Z,95027.38
2023-01-13T07:27:30.493Z,95034.78
2023-01-13T07:30:00.346Z,95030.34
2023-01-13T07:32:30.230Z,95030.56
2023-01-13T07:35:04.783Z,95033.09
2023-01-13T07:37:35.989Z,95022.28
2023-01-13T07:40:09.845Z,95023.88
2023-01-13T07:42:54.308Z,95025.03
2023-01-13T07:45:24.082Z,95033.84
2023-01-13T07:47:56.008Z,95035.66
2023-01-13T07:50:26.069Z,95031.78
2023-01-13T07:52:55.988Z,95023.94
2023-01-13T07:55:28.461Z,95036.81
2023-01-13T07:57:58.607Z,95032.38
2023-01-13T08:00:28.433Z,95024.53
2023-01-13T08:02:58.317Z,95022.28
2023-01-13T08:05:28.242Z,95017.28
2023-01-13T08:07:58.057Z,95018.00
2023-01-13T08:10:30.545Z,95017.41
2023-01-13T08:13:12.924Z,95015.38
2023-01-13T08:15:42.807Z,95020.75
2023-01-13T08:18:13.421Z,95024.59
2023-01-13T08:20:43.293Z,95022.34
2023-01-13T08:23:13.204Z,95030.13
2023-01-13T08:25:45.638Z,95026.25
2023-01-13T08:28:15.923Z,95028.44
2023-01-13T08:30:45.969Z,95036.56
2023-01-13T08:33:16.324Z,95026.78
2023-01-13T08:35:46.169Z,95035.69
2023-01-13T08:38:16.001Z,95036.31
2023-01-13T08:40:48.495Z,95035.06
2023-01-13T08:43:18.453Z,95037.44
2023-01-13T08:45:48.322Z,95040.06
2023-01-13T08:48:18.175Z,95039.41
2023-01-13T08:50:48.105Z,95032.72
2023-01-13T08:53:18.143Z,95038.88
2023-01-13T08:55:50.615Z,95037.47
2023-01-13T08:58:20.408Z,95040.22
2023-01-13T09:00:50.363Z,95050.09
2023-01-13T09:03:20.395Z,95048.63
2023-01-13T09:05:51.233Z,95044.34
2023-01-13T09:08:21.091Z,95053.69
2023-01-13T09:10:53.906Z,95052.25
2023-01-13T09:13:21.895Z,95055.13
2023-01-13T09:15:52.400Z,95062.31
2023-01-13T09:18:22.330Z,95064.00
2023-01-13T09:20:52.261Z,95062.75
2023-01-13T09:23:22.350Z,95067.88
2023-01-13T09:25:55.504Z,95056.66
2023-01-13T09:28:25.469Z,95062.59
2023-01-13T09:30:57.732Z,95064.00
2023-01-13T09:33:40.074Z,95063.78
2023-01-13T09:36:10.794Z,95067.31
2023-01-13T09:38:40.633Z,95071.44
2023-01-13T09:41:34.496Z,95061.75
2023-01-13T09:44:07.087Z,95062.56
2023-01-13T09:46:47.654Z,95057.66
2023-01-13T09:49:23.043Z,95059.38
2023-01-13T09:52:00.638Z,95065.56
2023-01-13T09:54:38.110Z,95055.94
2023-01-13T09:57:13.548Z,95048.47
2023-01-13T09:59:44.052Z,95062.78
2023-01-13T10:02:34.969Z,95059.66
2023-01-13T10:05:06.559Z,95063.16
2023-01-13T10:07:45.077Z,95049.34
2023-01-13T10:10:24.441Z,95044.97
2023-01-13T10:13:09.534Z,95047.31
2023-01-13T10:15:39.479Z,95040.91
2023-01-13T10:18:18.405Z,95014.56
2023-01-13T10:20:59.602Z,95030.25
2023-01-13T10:23:59.549Z,95021.88
2023-01-13T10:26:47.632Z,95012.91
2023-01-13T10:29:28.280Z,95011.88
2023-01-13T10:32:01.682Z,95005.66
2023-01-13T10:34:31.919Z,95014.91
2023-01-13T10:37:06.628Z,95010.47
2023-01-13T10:39:43.895Z,95018.44
2023-01-13T10:42:19.337Z,95014.13
2023-01-13T10:44:57.282Z,95016.44
2023-01-13T10:47:30.525Z,95017.94
2023-01-13T10:50:22.404Z,95018.56
2023-01-13T10:53:02.547Z,95003.22
2023-01-13T10:55:37.101Z,95003.31
2023-01-13T10:58:16.037Z,95012.97
2023-01-13T11:00:49.514Z,95008.47
2023-01-13T11:03:23.245Z,95012.41
2023-01-13T11:05:59.204Z,95019.13
2023-01-13T11:08:32.393Z,95024.44
2023-01-13T11:11:04.178Z,95009.81
2023-01-13T11:14:01.082Z,95026.63
2023-01-13T11:16:33.836Z,95013.53
2023-01-13T11:19:14.512Z,95003.56
2023-01-13T11:21:55.069Z,94995.59
2023-01-13T11:24:37.429Z,94996.31
2023-01-13T11:27:15.811Z,94994.94
2023-01-13T11:30:02.116Z,94994.91
2023-01-13T11:32:43.641Z,94992.66
2023-01-13T11:35:20.779Z,95015.97
2023-01-13T11:37:56.710Z,95005.78
2023-01-13T11:40:35.169Z,95019.19
2023-01-13T11:43:14.329Z,95021.44
2023-01-13T11:45:48.322Z,95015.97
2023-01-13T11:48:27.061Z,95028.06
2023-01-13T11:51:06.025Z,95023.84
2023-01-13T11:54:00.157Z,95026.16
2023-01-13T11:57:02.113Z,95034.00
2023-01-13T12:00:02.157Z,95024.56
2023-01-13T12:03:02.636Z,95024.88
2023-01-13T12:05:40.893Z,95032.03
2023-01-13T12:08:20.615Z,95025.25
2023-01-13T12:11:06.054Z,95042.22
2023-01-13T12:13:52.181Z,95031.31
2023-01-13T12:16:28.403Z,95015.75
2023-01-13T12:19:26.274Z,95021.69
2023-01-13T12:22:15.344Z,95021.88
2023-01-13T12:24:52.501Z,95022.00
2023-01-13T12:27:33.545Z,95037.09
2023-01-13T12:30:16.013Z,95041.00
2023-01-13T12:32:48.906Z,95034.28
2023-01-13T12:35:34.788Z,95026.56
2023-01-13T12:38:16.682Z,95031.13
2023-01-13T12:40:57.251Z,95030.19
2023-01-13T12:43:40.458Z,95031.53
2023-01-13T12:46:40.357Z,95035.53
2023-01-13T12:49:22.351Z,95037.94
2023-01-13T12:52:25.182Z,95041.25
2023-01-13T12:55:16.738Z,95032.09
2023-01-13T12:58:17.345Z,95043.16
2023-01-13T13:01:01.124Z,95044.72
2023-01-13T13:03:34.685Z,95045.78
2023-01-13T13:06:13.778Z,95056.50
2023-01-13T13:09:03.164Z,95060.94
2023-01-13T13:11:58.005Z,95048.16
2023-01-13T13:14:57.992Z,95047.72
2023-01-13T13:17:44.890Z,95068.00
2023-01-13T13:20:44.829Z,95040.53
2023-01-13T13:23:32.160Z,95048.53
2023-01-13T13:26:04.309Z,95045.53
2023-01-13T13:28:44.773Z,95052.97
2023-01-13T13:31:31.537Z,95054.66
2023-01-13T13:34:18.873Z,95056.69
2023-01-13T13:37:05.871Z,95042.94
2023-01-13T13:39:49.147Z,95045.66
2023-01-13T13:42:36.331Z,95051.25
2023-01-13T13:45:40.878Z,95055.56
2023-01-13T13:48:26.760Z,95063.28
2023-01-13T13:51:02.272Z,95053.84
2023-01-13T13:53:36.737Z,95078.31
2023-01-13T13:56:19.045Z,95086.75
2023-01-13T13:58:52.332Z,95082.75
2023-01-13T14:01:31.598Z,95095.50
2023-01-13T14:04:14.379Z,95186.63
2023-01-13T14:06:53.622Z,95211.53
2023-01-13T14:09:25.465Z,95229.13
2023-01-13T14:12:04.457Z,95227.00
2023-01-13T14:14:34.274Z,95229.63
2023-01-13T14:17:07.763Z,95240.56
2023-01-13T14:19:44.368Z,95230.47
2023-01-13T14:22:19.541Z,95230.50
2023-01-13T14:24:55.492Z,95243.31
2023-01-13T14:27:28.878Z,95252.34
2023-01-13T14:30:02.955Z,95249.13
2023-01-13T14:32:40.101Z,95235.50
2023-01-13T14:35:11.104Z,95236.09
2023-01-13T14:37:44.102Z,95247.56
2023-01-13T14:40:47.596Z,95238.94
2023-01-13T14:43:21.293Z,95241.94
2023-01-13T14:46:02.493Z,95247.38
2023-01-13T14:48:38.773Z,95249.97
2023-01-13T14:51:13.293Z,95253.56
2023-01-13T14:53:47.010Z,95244.75
2023-01-13T14:56:47.788Z,95242.75
2023-01-13T14:59:36.357Z,95255.56
2023-01-13T15:02:46.707Z,95243.53
2023-01-13T15:05:37.650Z,95263.00
2023-01-13T15:08:29.142Z,95277.22
2023-01-13T15:11:02.522Z,95277.00
2023-01-13T15:13:52.011Z,95266.81
2023-01-13T15:16:26.064Z,95288.66
2023-01-13T15:18:57.423Z,95283.88
2023-01-13T15:21:29.829Z,95273.78
2023-01-13T15:23:59.984Z,95274.56
2023-01-13T15:26:32.224Z,95281.81
2023-01-13T15:29:02.914Z,95290.00
2023-01-13T15:31:32.895Z,95289.00
2023-01-13T15:34:02.790Z,95279.78
2023-01-13T15:36:38.217Z,95280.59
2023-01-13T15:39:09.788Z,95293.78
2023-01-13T15:41:52.070Z,95294.41
2023-01-13T15:44:34.476Z,95309.19
2023-01-13T15:47:08.003Z,95305.53
2023-01-13T15:49:42.267Z,95311.09
2023-01-13T15:52:22.937Z,95315.94
2023-01-13T15:54:54.138Z,95311.91
2023-01-13T15:57:26.439Z,95313.31
2023-01-13T16:00:00.375Z,95318.69
2023-01-13T16:02:31.109Z,95315.28
2023-01-13T16:05:01.039Z,95318.53
2023-01-13T16:07:36.050Z,95327.94
2023-01-13T16:10:06.549Z,95314.47
2023-01-13T16:12:37.613Z,95323.75
2023-01-13T16:15:08.163Z,95328.97
2023-01-13T16:17:38.837Z,95322.56
2023-01-13T16:20:14.649Z,95331.38
2023-01-13T16:22:48.194Z,95329.97
2023-01-13T16:25:20.197Z,95338.97
2023-01-13T16:27:51.073Z,95349.97
2023-01-13T16:30:26.526Z,95349.00
2023-01-13T16:32:56.444Z,95356.13
2023-01-13T16:35:28.657Z,95360.78
2023-01-13T16:38:01.191Z,95346.94
2023-01-13T16:40:33.502Z,95357.97
2023-01-13T16:43:06.787Z,95360.78
2023-01-13T16:45:36.921Z,95360.38
2023-01-13T16:48:07.599Z,95382.00
2023-01-13T16:50:41.048Z,95389.19
2023-01-13T16:53:14.962Z,95395.19
2023-01-13T16:55:46.155Z,95392.78
2023-01-13T16:58:20.651Z,95397.66
2023-01-13T17:00:53.026Z,95389.47
2023-01-13T17:03:23.075Z,95382.03
2023-01-13T17:05:52.933Z,95383.22
2023-01-13T17:08:26.179Z,95391.59
2023-01-13T17:10:56.046Z,95394.19
2023-01-13T17:13:26.754Z,95397.75
2023-01-13T17:15:58.660Z,95382.94
2023-01-13T17:18:28.562Z,95380.94
2023-01-13T17:20:58.871Z,95382.53
2023-01-13T17:23:31.682Z,95374.56
2023-01-13T17:26:01.628Z,95380.41
2023-01-13T17:28:31.529Z,95384.66
2023-01-13T17:31:01.412Z,95380.25
2023-01-13T17:33:37.171Z,95376.84
2023-01-13T17:36:08.172Z,95377.47
2023-01-13T17:38:40.582Z,95380.88
2023-01-13T17:41:10.423Z,95388.94
2023-01-13T17:43:41.264Z,95402.59
2023-01-13T17:46:12.589Z,95407.22
2023-01-13T17:48:42.455Z,95411.03
2023-01-13T17:51:15.525Z,95405.63
2023-01-13T17:53:49.205Z,95400.41
2023-01-13T17:56:19.341Z,95404.44
2023-01-13T17:58:49.530Z,95408.66
2023-01-13T18:01:22.621Z,95421.25
2023-01-13T18:03:52.928Z,95414.66
2023-01-13T18:06:26.085Z,95435.72
2023-01-13T18:08:58.809Z,95433.91
2023-01-13T18:11:29.540Z,95425.66
2023-01-13T18:14:00.353Z,95431.69
2023-01-13T18:16:32.179Z,95437.88
2023-01-13T18:19:14.890Z,95440.88
2023-01-13T18:21:57.852Z,95439.28
2023-01-13T18:24:42.847Z,95435.88
2023-01-13T18:27:23.022Z,95433.03
2023-01-13T18:29:54.897Z,95444.25
2023-01-13T18:32:32.927Z,95448.72
2023-01-13T18:35:06.695Z,95465.16
2023-01-13T18:37:38.839Z,95469.41
2023-01-13T18:40:14.551Z,95471.94
2023-01-13T18:42:51.430Z,95476.00
2023-01-13T18:45:22.125Z,95483.22
2023-01-13T18:47:52.075Z,95472.97
2023-01-13T18:50:23.152Z,95477.72
2023-01-13T18:52:53.879Z,95475.53
2023-01-13T18:55:28.703Z,95477.88
2023-01-13T18:57:59.745Z,95478.22
2023-01-13T19:00:31.152Z,95487.38
2023-01-13T19:05:38.359Z,95499.13
2023-01-13T19:08:08.744Z,95501.28
2023-01-13T19:10:42.291Z,95501.63
2023-01-13T19:13:13.151Z,95507.84
2023-01-13T19:15:43.037Z,95509.59
2023-01-13T19:18:14.342Z,95505.94
2023-01-13T19:20:44.238Z,95511.44
2023-01-13T19:23:14.044Z,95502.03
2023-01-13T19:25:46.814Z,95498.63
2023-01-13T19:28:16.629Z,95497.16
2023-01-13T19:30:46.569Z,95508.38
2023-01-13T19:33:16.840Z,95505.72
2023-01-13T19:35:46.781Z,95519.13
2023-01-13T19:38:16.600Z,95527.75
2023-01-13T19:40:54.977Z,95535.13
2023-01-13T19:43:37.911Z,95542.16
2023-01-13T19:46:08.108Z,95533.94
2023-01-13T19:48:38.293Z,95536.00
2023-01-13T19:51:09.508Z,95541.47
2023-01-13T19:53:39.531Z,95557.69
2023-01-13T19:56:15.992Z,95566.31
2023-01-13T19:58:50.585Z,95574.56
2023-01-13T20:01:21.271Z,95570.16
2023-01-13T20:03:51.187Z,95584.41
2023-01-13T20:06:21.086Z,95590.25
2023-01-13T20:08:51.093Z,95590.25
2023-01-13T20:11:31.405Z,95587.44
2023-01-13T20:14:02.914Z,95615.50
2023-01-13T20:16:34.292Z,95622.09
2023-01-13T20:19:04.319Z,95634.56
2023-01-13T20:21:34.827Z,95634.44
2023-01-13T20:24:05.185Z,95655.00
2023-01-13T20:26:39.976Z,95654.03
2023-01-13T20:29:09.847Z,95682.59
2023-01-13T20:31:40.450Z,95678.53
2023-01-13T20:34:10.743Z,95662.22
2023-01-13T20:36:43.395Z,95657.75
2023-01-13T20:39:18.183Z,95653.91
2023-01-13T20:42:03.359Z,95660.13
2023-01-13T20:44:34.010Z,95651.03
2023-01-13T20:47:05.054Z,95654.44
2023-01-13T20:49:36.173Z,95650.66
2023-01-13T20:52:09.920Z,95664.25
2023-01-13T20:54:40.356Z,95676.78
2023-01-13T20:57:14.536Z,95687.56
2023-01-13T20:59:45.801Z,95687.56
2023-01-13T21:02:18.230Z,95679.66
2023-01-13T21:04:48.387Z,95664.88
2023-01-13T21:07:18.247Z,95664.41
2023-01-13T21:09:48.525Z,95669.97
2023-01-13T21:12:33.474Z,95685.31
2023-01-13T21:15:16.490Z,95682.09
2023-01-13T21:17:59.719Z,95682.28
2023-01-13T21:20:30.900Z,95681.28
2023-01-13T21:23:01.302Z,95686.81
2023-01-13T21:25:33.979Z,95693.06
2023-01-13T21:28:11.446Z,95694.25
2023-01-13T21:30:42.101Z,95699.97
2023-01-13T21:33:16.165Z,95694.84
2023-01-13T21:35:46.005Z,95697.69
2023-01-13T21:38:15.828Z,95706.97
2023-01-13T21:40:45.780Z,95705.41
2023-01-13T21:43:30.617Z,95709.53
2023-01-13T21:46:12.956Z,95715.78
2023-01-13T21:48:42.790Z,95720.19
2023-01-13T21:51:12.629Z,95727.13
2023-01-13T21:53:42.481Z,95730.81
2023-01-13T21:56:12.299Z,95722.00
2023-01-13T21:58:45.064Z,95719.13
2023-01-13T22:01:15.028Z,95726.28
2023-01-13T22:03:57.382Z,95729.22
2023-01-13T22:06:28.750Z,95733.16
2023-01-13T22:09:01.039Z,95724.63
2023-01-13T22:11:31.909Z,95725.25
2023-01-13T22:14:10.278Z,95724.63
2023-01-13T22:16:50.009Z,95738.13
2023-01-13T22:19:20.028Z,95735.84
2023-01-13T22:21:49.914Z,95744.50
2023-01-13T22:24:19.908Z,95740.75
2023-01-13T22:26:49.778Z,95734.28
2023-01-13T22:29:22.313Z,95733.72
2023-01-13T22:31:52.337Z,95742.94
2023-01-13T22:34:22.512Z,95744.09
2023-01-13T22:36:52.344Z,95751.53
2023-01-13T22:39:22.781Z,95756.09
2023-01-13T22:41:52.651Z,95758.69
2023-01-13T22:44:25.400Z,95762.28
2023-01-13T22:46:55.685Z,95763.44
2023-01-13T22:49:25.523Z,95769.78
2023-01-13T22:51:56.038Z,95763.31
2023-01-13T22:54:26.122Z,95774.50
2023-01-13T22:56:55.947Z,95773.69
2023-01-13T22:59:28.416Z,95773.34
2023-01-13T23:01:58.327Z,95771.72
2023-01-13T23:04:28.194Z,95771.06
2023-01-13T23:06:58.033Z,95777.84
2023-01-13T23:09:29.882Z,95783.56
2023-01-13T23:12:00.927Z,95790.03
2023-01-13T23:14:36.244Z,95794.09
2023-01-13T23:17:07.098Z,95790.69
2023-01-13T23:19:36.935Z,95799.41
2023-01-13T23:22:06.751Z,95792.00
2023-01-13T23:24:36.570Z,95797.81
2023-01-13T23:27:06.567Z,95786.31
2023-01-13T23:29:39.076Z,95784.25
2023-01-13T23:32:09.139Z,95782.09
2023-01-13T23:34:38.957Z,95788.28
2023-01-13T23:37:08.756Z,95775.97
2023-01-13T23:39:38.581Z,95775.47
2023-01-13T23:42:08.448Z,95776.09
2023-01-13T23:44:40.926Z,95776.91
2023-01-13T23:47:12.048Z,95775.78
2023-01-13T23:49:41.895Z,95766.22
2023-01-13T23:52:11.761Z,95764.91
2023-01-13T23:54:41.564Z,95753.88
2023-01-13T23:57:11.409Z,95760.22
2023-01-13T23:59:43.833Z,95751.44
